<?xml version="1.0" encoding="UTF-8" standalone="no" ?>
<gpx xmlns="http://www.topografix.com/GPX/1/1" xmlns:xsi="http://www.w3.org/2001/XMLSchema-instance" xsi:schemaLocation="http://www.topografix.com/GPX/1/1 http://www.topografix.com/GPX/1/1/gpx.xsd" version="1.1" creator="VisuGPX - https://www.visugpx.com">
  <metadata>
    <name>Beaucouzé - CAP 10km</name>
    <desc><![CDATA[Départ hotel b&b, un peu de route pour le transfert puis très beau chemin dans les bois. Sympa.]]></desc>
  </metadata>
  <trk>
    <name><![CDATA[Sequence 3]]></name>
    <trkseg>
      <trkpt lat="47.45104" lon="-0.63065">
        <ele>66</ele>
        <time>2015-08-25T18:12:56Z</time>
      </trkpt>
      <trkpt lat="47.45122" lon="-0.63085">
        <ele>65</ele>
        <time>2015-08-25T18:13:06Z</time>
      </trkpt>
      <trkpt lat="47.45126" lon="-0.6309">
        <ele>66</ele>
        <time>2015-08-25T18:13:08Z</time>
      </trkpt>
      <trkpt lat="47.45136" lon="-0.63103">
        <ele>66</ele>
        <time>2015-08-25T18:13:14Z</time>
      </trkpt>
      <trkpt lat="47.4515" lon="-0.6312">
        <ele>66</ele>
        <time>2015-08-25T18:13:23Z</time>
      </trkpt>
      <trkpt lat="47.45158" lon="-0.63131">
        <ele>66</ele>
        <time>2015-08-25T18:13:28Z</time>
      </trkpt>
      <trkpt lat="47.45165" lon="-0.63141">
        <ele>66</ele>
        <time>2015-08-25T18:13:32Z</time>
      </trkpt>
      <trkpt lat="47.45182" lon="-0.63163">
        <ele>66</ele>
        <time>2015-08-25T18:13:40Z</time>
      </trkpt>
      <trkpt lat="47.45192" lon="-0.63173">
        <ele>66</ele>
        <time>2015-08-25T18:13:45Z</time>
      </trkpt>
      <trkpt lat="47.45203" lon="-0.63187">
        <ele>66</ele>
        <time>2015-08-25T18:13:50Z</time>
      </trkpt>
      <trkpt lat="47.45231" lon="-0.63218">
        <ele>66</ele>
        <time>2015-08-25T18:14:01Z</time>
      </trkpt>
      <trkpt lat="47.45233" lon="-0.63221">
        <ele>66</ele>
        <time>2015-08-25T18:14:02Z</time>
      </trkpt>
      <trkpt lat="47.45247" lon="-0.63239">
        <ele>67</ele>
        <time>2015-08-25T18:14:08Z</time>
      </trkpt>
      <trkpt lat="47.45267" lon="-0.63258">
        <ele>67</ele>
        <time>2015-08-25T18:14:19Z</time>
      </trkpt>
      <trkpt lat="47.45268" lon="-0.63259">
        <ele>67</ele>
        <time>2015-08-25T18:14:20Z</time>
      </trkpt>
      <trkpt lat="47.45276" lon="-0.63272">
        <ele>67</ele>
        <time>2015-08-25T18:14:26Z</time>
      </trkpt>
      <trkpt lat="47.45281" lon="-0.63291">
        <ele>67</ele>
        <time>2015-08-25T18:14:32Z</time>
      </trkpt>
      <trkpt lat="47.453" lon="-0.63315">
        <ele>67</ele>
        <time>2015-08-25T18:14:41Z</time>
      </trkpt>
      <trkpt lat="47.45309" lon="-0.6333">
        <ele>67</ele>
        <time>2015-08-25T18:14:45Z</time>
      </trkpt>
      <trkpt lat="47.45317" lon="-0.63354">
        <ele>67</ele>
        <time>2015-08-25T18:14:51Z</time>
      </trkpt>
      <trkpt lat="47.45325" lon="-0.63376">
        <ele>66</ele>
        <time>2015-08-25T18:14:56Z</time>
      </trkpt>
      <trkpt lat="47.45331" lon="-0.63402">
        <ele>66</ele>
        <time>2015-08-25T18:15:02Z</time>
      </trkpt>
      <trkpt lat="47.45338" lon="-0.63416">
        <ele>66</ele>
        <time>2015-08-25T18:15:08Z</time>
      </trkpt>
      <trkpt lat="47.45343" lon="-0.63438">
        <ele>66</ele>
        <time>2015-08-25T18:15:15Z</time>
      </trkpt>
      <trkpt lat="47.45345" lon="-0.63449">
        <ele>66</ele>
        <time>2015-08-25T18:15:20Z</time>
      </trkpt>
      <trkpt lat="47.45357" lon="-0.63459">
        <ele>66</ele>
        <time>2015-08-25T18:15:26Z</time>
      </trkpt>
      <trkpt lat="47.45378" lon="-0.63498">
        <ele>66</ele>
        <time>2015-08-25T18:15:35Z</time>
      </trkpt>
      <trkpt lat="47.45385" lon="-0.63508">
        <ele>66</ele>
        <time>2015-08-25T18:15:38Z</time>
      </trkpt>
      <trkpt lat="47.45395" lon="-0.63521">
        <ele>65</ele>
        <time>2015-08-25T18:15:44Z</time>
      </trkpt>
      <trkpt lat="47.45404" lon="-0.63535">
        <ele>65</ele>
        <time>2015-08-25T18:15:50Z</time>
      </trkpt>
      <trkpt lat="47.45405" lon="-0.6353">
        <ele>65</ele>
        <time>2015-08-25T18:15:57Z</time>
      </trkpt>
      <trkpt lat="47.45387" lon="-0.63498">
        <ele>66</ele>
        <time>2015-08-25T18:16:07Z</time>
      </trkpt>
      <trkpt lat="47.45383" lon="-0.63491">
        <ele>66</ele>
        <time>2015-08-25T18:16:09Z</time>
      </trkpt>
      <trkpt lat="47.45382" lon="-0.63476">
        <ele>65</ele>
        <time>2015-08-25T18:16:14Z</time>
      </trkpt>
      <trkpt lat="47.45373" lon="-0.63458">
        <ele>65</ele>
        <time>2015-08-25T18:16:20Z</time>
      </trkpt>
      <trkpt lat="47.45354" lon="-0.63432">
        <ele>65</ele>
        <time>2015-08-25T18:16:31Z</time>
      </trkpt>
      <trkpt lat="47.4535" lon="-0.63415">
        <ele>65</ele>
        <time>2015-08-25T18:16:36Z</time>
      </trkpt>
      <trkpt lat="47.45344" lon="-0.63405">
        <ele>66</ele>
        <time>2015-08-25T18:16:39Z</time>
      </trkpt>
      <trkpt lat="47.45329" lon="-0.63388">
        <ele>66</ele>
        <time>2015-08-25T18:16:44Z</time>
      </trkpt>
      <trkpt lat="47.45316" lon="-0.63349">
        <ele>67</ele>
        <time>2015-08-25T18:16:54Z</time>
      </trkpt>
      <trkpt lat="47.45314" lon="-0.63342">
        <ele>67</ele>
        <time>2015-08-25T18:16:56Z</time>
      </trkpt>
      <trkpt lat="47.45302" lon="-0.63315">
        <ele>67</ele>
        <time>2015-08-25T18:17:04Z</time>
      </trkpt>
      <trkpt lat="47.45297" lon="-0.63298">
        <ele>67</ele>
        <time>2015-08-25T18:17:11Z</time>
      </trkpt>
      <trkpt lat="47.45294" lon="-0.63288">
        <ele>67</ele>
        <time>2015-08-25T18:17:14Z</time>
      </trkpt>
      <trkpt lat="47.45278" lon="-0.63269">
        <ele>67</ele>
        <time>2015-08-25T18:17:22Z</time>
      </trkpt>
      <trkpt lat="47.45267" lon="-0.63253">
        <ele>67</ele>
        <time>2015-08-25T18:17:26Z</time>
      </trkpt>
      <trkpt lat="47.45256" lon="-0.63232">
        <ele>67</ele>
        <time>2015-08-25T18:17:32Z</time>
      </trkpt>
      <trkpt lat="47.45241" lon="-0.63214">
        <ele>67</ele>
        <time>2015-08-25T18:17:39Z</time>
      </trkpt>
      <trkpt lat="47.45229" lon="-0.63207">
        <ele>66</ele>
        <time>2015-08-25T18:17:44Z</time>
      </trkpt>
      <trkpt lat="47.4521" lon="-0.63178">
        <ele>66</ele>
        <time>2015-08-25T18:17:53Z</time>
      </trkpt>
      <trkpt lat="47.45207" lon="-0.63171">
        <ele>66</ele>
        <time>2015-08-25T18:17:56Z</time>
      </trkpt>
      <trkpt lat="47.45201" lon="-0.63153">
        <ele>66</ele>
        <time>2015-08-25T18:18:03Z</time>
      </trkpt>
      <trkpt lat="47.45193" lon="-0.63143">
        <ele>66</ele>
        <time>2015-08-25T18:18:08Z</time>
      </trkpt>
      <trkpt lat="47.45164" lon="-0.63115">
        <ele>66</ele>
        <time>2015-08-25T18:18:19Z</time>
      </trkpt>
      <trkpt lat="47.4516" lon="-0.63114">
        <ele>66</ele>
        <time>2015-08-25T18:18:20Z</time>
      </trkpt>
      <trkpt lat="47.45137" lon="-0.63086">
        <ele>65</ele>
        <time>2015-08-25T18:18:30Z</time>
      </trkpt>
      <trkpt lat="47.45132" lon="-0.63082">
        <ele>65</ele>
        <time>2015-08-25T18:18:32Z</time>
      </trkpt>
      <trkpt lat="47.45121" lon="-0.63064">
        <ele>65</ele>
        <time>2015-08-25T18:18:41Z</time>
      </trkpt>
      <trkpt lat="47.4512" lon="-0.63054">
        <ele>65</ele>
        <time>2015-08-25T18:18:46Z</time>
      </trkpt>
      <trkpt lat="47.45121" lon="-0.63047">
        <ele>65</ele>
        <time>2015-08-25T18:18:50Z</time>
      </trkpt>
      <trkpt lat="47.45127" lon="-0.63032">
        <ele>65</ele>
        <time>2015-08-25T18:18:57Z</time>
      </trkpt>
      <trkpt lat="47.45134" lon="-0.63026">
        <ele>65</ele>
        <time>2015-08-25T18:19:02Z</time>
      </trkpt>
      <trkpt lat="47.45143" lon="-0.63008">
        <ele>65</ele>
        <time>2015-08-25T18:19:08Z</time>
      </trkpt>
      <trkpt lat="47.45148" lon="-0.62992">
        <ele>64</ele>
        <time>2015-08-25T18:19:14Z</time>
      </trkpt>
      <trkpt lat="47.45159" lon="-0.62971">
        <ele>64</ele>
        <time>2015-08-25T18:19:22Z</time>
      </trkpt>
      <trkpt lat="47.45172" lon="-0.62947">
        <ele>63</ele>
        <time>2015-08-25T18:19:28Z</time>
      </trkpt>
      <trkpt lat="47.45179" lon="-0.62933">
        <ele>63</ele>
        <time>2015-08-25T18:19:32Z</time>
      </trkpt>
      <trkpt lat="47.45191" lon="-0.62893">
        <ele>62</ele>
        <time>2015-08-25T18:19:40Z</time>
      </trkpt>
      <trkpt lat="47.45188" lon="-0.62875">
        <ele>62</ele>
        <time>2015-08-25T18:19:44Z</time>
      </trkpt>
      <trkpt lat="47.45187" lon="-0.62848">
        <ele>62</ele>
        <time>2015-08-25T18:19:50Z</time>
      </trkpt>
      <trkpt lat="47.45187" lon="-0.62813">
        <ele>62</ele>
        <time>2015-08-25T18:19:56Z</time>
      </trkpt>
      <trkpt lat="47.45182" lon="-0.62784">
        <ele>61</ele>
        <time>2015-08-25T18:20:02Z</time>
      </trkpt>
      <trkpt lat="47.45176" lon="-0.62762">
        <ele>61</ele>
        <time>2015-08-25T18:20:08Z</time>
      </trkpt>
      <trkpt lat="47.45171" lon="-0.62739">
        <ele>61</ele>
        <time>2015-08-25T18:20:15Z</time>
      </trkpt>
      <trkpt lat="47.45157" lon="-0.62709">
        <ele>62</ele>
        <time>2015-08-25T18:20:25Z</time>
      </trkpt>
      <trkpt lat="47.45156" lon="-0.62706">
        <ele>62</ele>
        <time>2015-08-25T18:20:26Z</time>
      </trkpt>
      <trkpt lat="47.45146" lon="-0.6269">
        <ele>62</ele>
        <time>2015-08-25T18:20:32Z</time>
      </trkpt>
      <trkpt lat="47.45133" lon="-0.62664">
        <ele>63</ele>
        <time>2015-08-25T18:20:39Z</time>
      </trkpt>
      <trkpt lat="47.45129" lon="-0.62648">
        <ele>63</ele>
        <time>2015-08-25T18:20:44Z</time>
      </trkpt>
      <trkpt lat="47.45121" lon="-0.62634">
        <ele>63</ele>
        <time>2015-08-25T18:20:50Z</time>
      </trkpt>
      <trkpt lat="47.45105" lon="-0.62619">
        <ele>63</ele>
        <time>2015-08-25T18:20:56Z</time>
      </trkpt>
      <trkpt lat="47.45086" lon="-0.62583">
        <ele>64</ele>
        <time>2015-08-25T18:21:07Z</time>
      </trkpt>
      <trkpt lat="47.45085" lon="-0.6258">
        <ele>64</ele>
        <time>2015-08-25T18:21:08Z</time>
      </trkpt>
      <trkpt lat="47.45083" lon="-0.62552">
        <ele>64</ele>
        <time>2015-08-25T18:21:16Z</time>
      </trkpt>
      <trkpt lat="47.45079" lon="-0.62538">
        <ele>64</ele>
        <time>2015-08-25T18:21:20Z</time>
      </trkpt>
      <trkpt lat="47.45072" lon="-0.6252">
        <ele>64</ele>
        <time>2015-08-25T18:21:26Z</time>
      </trkpt>
      <trkpt lat="47.45064" lon="-0.62506">
        <ele>64</ele>
        <time>2015-08-25T18:21:32Z</time>
      </trkpt>
      <trkpt lat="47.45054" lon="-0.62477">
        <ele>65</ele>
        <time>2015-08-25T18:21:43Z</time>
      </trkpt>
      <trkpt lat="47.4505" lon="-0.6246">
        <ele>65</ele>
        <time>2015-08-25T18:21:48Z</time>
      </trkpt>
      <trkpt lat="47.45049" lon="-0.62452">
        <ele>65</ele>
        <time>2015-08-25T18:21:50Z</time>
      </trkpt>
      <trkpt lat="47.45041" lon="-0.62429">
        <ele>65</ele>
        <time>2015-08-25T18:21:56Z</time>
      </trkpt>
      <trkpt lat="47.45032" lon="-0.62399">
        <ele>65</ele>
        <time>2015-08-25T18:22:05Z</time>
      </trkpt>
      <trkpt lat="47.45032" lon="-0.62404">
        <ele>65</ele>
        <time>2015-08-25T18:22:10Z</time>
      </trkpt>
      <trkpt lat="47.45033" lon="-0.62411">
        <ele>65</ele>
        <time>2015-08-25T18:22:14Z</time>
      </trkpt>
      <trkpt lat="47.45036" lon="-0.62431">
        <ele>65</ele>
        <time>2015-08-25T18:22:22Z</time>
      </trkpt>
      <trkpt lat="47.45036" lon="-0.62442">
        <ele>65</ele>
        <time>2015-08-25T18:22:26Z</time>
      </trkpt>
      <trkpt lat="47.45038" lon="-0.6245">
        <ele>65</ele>
        <time>2015-08-25T18:22:35Z</time>
      </trkpt>
      <trkpt lat="47.45038" lon="-0.62452">
        <ele>65</ele>
        <time>2015-08-25T18:22:43Z</time>
      </trkpt>
      <trkpt lat="47.45038" lon="-0.62453">
        <ele>65</ele>
        <time>2015-08-25T18:22:44Z</time>
      </trkpt>
      <trkpt lat="47.45039" lon="-0.62457">
        <ele>65</ele>
        <time>2015-08-25T18:22:50Z</time>
      </trkpt>
      <trkpt lat="47.45045" lon="-0.62483">
        <ele>65</ele>
        <time>2015-08-25T18:22:56Z</time>
      </trkpt>
      <trkpt lat="47.45063" lon="-0.62561">
        <ele>64</ele>
        <time>2015-08-25T18:23:07Z</time>
      </trkpt>
      <trkpt lat="47.45067" lon="-0.62571">
        <ele>64</ele>
        <time>2015-08-25T18:23:10Z</time>
      </trkpt>
      <trkpt lat="47.45075" lon="-0.62591">
        <ele>64</ele>
        <time>2015-08-25T18:23:15Z</time>
      </trkpt>
      <trkpt lat="47.45086" lon="-0.62613">
        <ele>64</ele>
        <time>2015-08-25T18:23:21Z</time>
      </trkpt>
      <trkpt lat="47.45107" lon="-0.62643">
        <ele>63</ele>
        <time>2015-08-25T18:23:31Z</time>
      </trkpt>
      <trkpt lat="47.45109" lon="-0.62647">
        <ele>63</ele>
        <time>2015-08-25T18:23:32Z</time>
      </trkpt>
      <trkpt lat="47.45131" lon="-0.62684">
        <ele>63</ele>
        <time>2015-08-25T18:23:41Z</time>
      </trkpt>
      <trkpt lat="47.45148" lon="-0.62715">
        <ele>62</ele>
        <time>2015-08-25T18:23:49Z</time>
      </trkpt>
      <trkpt lat="47.45148" lon="-0.62716">
        <ele>62</ele>
        <time>2015-08-25T18:23:50Z</time>
      </trkpt>
      <trkpt lat="47.45153" lon="-0.62736">
        <ele>62</ele>
        <time>2015-08-25T18:23:56Z</time>
      </trkpt>
      <trkpt lat="47.45166" lon="-0.62781">
        <ele>61</ele>
        <time>2015-08-25T18:24:06Z</time>
      </trkpt>
      <trkpt lat="47.45177" lon="-0.62799">
        <ele>61</ele>
        <time>2015-08-25T18:24:12Z</time>
      </trkpt>
      <trkpt lat="47.45179" lon="-0.62806">
        <ele>62</ele>
        <time>2015-08-25T18:24:14Z</time>
      </trkpt>
      <trkpt lat="47.45191" lon="-0.62859">
        <ele>62</ele>
        <time>2015-08-25T18:24:25Z</time>
      </trkpt>
      <trkpt lat="47.45192" lon="-0.62863">
        <ele>62</ele>
        <time>2015-08-25T18:24:26Z</time>
      </trkpt>
      <trkpt lat="47.45194" lon="-0.62882">
        <ele>62</ele>
        <time>2015-08-25T18:24:32Z</time>
      </trkpt>
      <trkpt lat="47.45187" lon="-0.62896">
        <ele>62</ele>
        <time>2015-08-25T18:24:38Z</time>
      </trkpt>
      <trkpt lat="47.45178" lon="-0.62914">
        <ele>62</ele>
        <time>2015-08-25T18:24:45Z</time>
      </trkpt>
      <trkpt lat="47.45167" lon="-0.62935">
        <ele>63</ele>
        <time>2015-08-25T18:24:52Z</time>
      </trkpt>
      <trkpt lat="47.4516" lon="-0.62946">
        <ele>63</ele>
        <time>2015-08-25T18:24:56Z</time>
      </trkpt>
      <trkpt lat="47.45148" lon="-0.62963">
        <ele>64</ele>
        <time>2015-08-25T18:25:02Z</time>
      </trkpt>
      <trkpt lat="47.45137" lon="-0.62981">
        <ele>64</ele>
        <time>2015-08-25T18:25:08Z</time>
      </trkpt>
      <trkpt lat="47.45125" lon="-0.62996">
        <ele>65</ele>
        <time>2015-08-25T18:25:14Z</time>
      </trkpt>
      <trkpt lat="47.45119" lon="-0.6302">
        <ele>65</ele>
        <time>2015-08-25T18:25:20Z</time>
      </trkpt>
      <trkpt lat="47.45123" lon="-0.63071">
        <ele>65</ele>
        <time>2015-08-25T18:25:29Z</time>
      </trkpt>
      <trkpt lat="47.45132" lon="-0.63097">
        <ele>66</ele>
        <time>2015-08-25T18:25:35Z</time>
      </trkpt>
      <trkpt lat="47.4514" lon="-0.63104">
        <ele>66</ele>
        <time>2015-08-25T18:25:38Z</time>
      </trkpt>
      <trkpt lat="47.45158" lon="-0.63123">
        <ele>66</ele>
        <time>2015-08-25T18:25:46Z</time>
      </trkpt>
      <trkpt lat="47.45162" lon="-0.63135">
        <ele>66</ele>
        <time>2015-08-25T18:25:50Z</time>
      </trkpt>
      <trkpt lat="47.45186" lon="-0.63157">
        <ele>66</ele>
        <time>2015-08-25T18:26:00Z</time>
      </trkpt>
      <trkpt lat="47.45189" lon="-0.63163">
        <ele>66</ele>
        <time>2015-08-25T18:26:02Z</time>
      </trkpt>
      <trkpt lat="47.45203" lon="-0.63182">
        <ele>66</ele>
        <time>2015-08-25T18:26:08Z</time>
      </trkpt>
      <trkpt lat="47.45217" lon="-0.63201">
        <ele>66</ele>
        <time>2015-08-25T18:26:14Z</time>
      </trkpt>
      <trkpt lat="47.45236" lon="-0.63226">
        <ele>67</ele>
        <time>2015-08-25T18:26:22Z</time>
      </trkpt>
      <trkpt lat="47.45245" lon="-0.63235">
        <ele>67</ele>
        <time>2015-08-25T18:26:26Z</time>
      </trkpt>
      <trkpt lat="47.45268" lon="-0.63273">
        <ele>67</ele>
        <time>2015-08-25T18:26:37Z</time>
      </trkpt>
      <trkpt lat="47.45273" lon="-0.63279">
        <ele>67</ele>
        <time>2015-08-25T18:26:39Z</time>
      </trkpt>
      <trkpt lat="47.45286" lon="-0.6329">
        <ele>67</ele>
        <time>2015-08-25T18:26:44Z</time>
      </trkpt>
      <trkpt lat="47.45301" lon="-0.63331">
        <ele>67</ele>
        <time>2015-08-25T18:26:54Z</time>
      </trkpt>
      <trkpt lat="47.45308" lon="-0.63346">
        <ele>67</ele>
        <time>2015-08-25T18:26:58Z</time>
      </trkpt>
      <trkpt lat="47.45315" lon="-0.63362">
        <ele>67</ele>
        <time>2015-08-25T18:27:02Z</time>
      </trkpt>
      <trkpt lat="47.45326" lon="-0.63381">
        <ele>66</ele>
        <time>2015-08-25T18:27:08Z</time>
      </trkpt>
      <trkpt lat="47.45334" lon="-0.63409">
        <ele>66</ele>
        <time>2015-08-25T18:27:15Z</time>
      </trkpt>
      <trkpt lat="47.45334" lon="-0.63434">
        <ele>66</ele>
        <time>2015-08-25T18:27:20Z</time>
      </trkpt>
      <trkpt lat="47.45346" lon="-0.63447">
        <ele>66</ele>
        <time>2015-08-25T18:27:26Z</time>
      </trkpt>
      <trkpt lat="47.45363" lon="-0.63476">
        <ele>66</ele>
        <time>2015-08-25T18:27:37Z</time>
      </trkpt>
      <trkpt lat="47.45375" lon="-0.63493">
        <ele>66</ele>
        <time>2015-08-25T18:27:42Z</time>
      </trkpt>
      <trkpt lat="47.4538" lon="-0.63499">
        <ele>66</ele>
        <time>2015-08-25T18:27:44Z</time>
      </trkpt>
      <trkpt lat="47.45395" lon="-0.63526">
        <ele>65</ele>
        <time>2015-08-25T18:27:51Z</time>
      </trkpt>
      <trkpt lat="47.45403" lon="-0.6355">
        <ele>66</ele>
        <time>2015-08-25T18:27:57Z</time>
      </trkpt>
      <trkpt lat="47.45425" lon="-0.63573">
        <ele>65</ele>
        <time>2015-08-25T18:28:06Z</time>
      </trkpt>
      <trkpt lat="47.4543" lon="-0.63577">
        <ele>65</ele>
        <time>2015-08-25T18:28:08Z</time>
      </trkpt>
      <trkpt lat="47.45456" lon="-0.63612">
        <ele>65</ele>
        <time>2015-08-25T18:28:19Z</time>
      </trkpt>
      <trkpt lat="47.45464" lon="-0.6362">
        <ele>64</ele>
        <time>2015-08-25T18:28:22Z</time>
      </trkpt>
      <trkpt lat="47.45478" lon="-0.6363">
        <ele>64</ele>
        <time>2015-08-25T18:28:27Z</time>
      </trkpt>
      <trkpt lat="47.4549" lon="-0.63658">
        <ele>64</ele>
        <time>2015-08-25T18:28:33Z</time>
      </trkpt>
      <trkpt lat="47.45502" lon="-0.63695">
        <ele>64</ele>
        <time>2015-08-25T18:28:42Z</time>
      </trkpt>
      <trkpt lat="47.45507" lon="-0.637">
        <ele>64</ele>
        <time>2015-08-25T18:28:44Z</time>
      </trkpt>
      <trkpt lat="47.45521" lon="-0.63723">
        <ele>64</ele>
        <time>2015-08-25T18:28:51Z</time>
      </trkpt>
      <trkpt lat="47.45531" lon="-0.6376">
        <ele>64</ele>
        <time>2015-08-25T18:29:00Z</time>
      </trkpt>
      <trkpt lat="47.45536" lon="-0.63773">
        <ele>64</ele>
        <time>2015-08-25T18:29:03Z</time>
      </trkpt>
      <trkpt lat="47.45545" lon="-0.63794">
        <ele>64</ele>
        <time>2015-08-25T18:29:09Z</time>
      </trkpt>
      <trkpt lat="47.4555" lon="-0.63812">
        <ele>64</ele>
        <time>2015-08-25T18:29:14Z</time>
      </trkpt>
      <trkpt lat="47.45559" lon="-0.63834">
        <ele>64</ele>
        <time>2015-08-25T18:29:20Z</time>
      </trkpt>
      <trkpt lat="47.45565" lon="-0.63863">
        <ele>64</ele>
        <time>2015-08-25T18:29:26Z</time>
      </trkpt>
      <trkpt lat="47.45569" lon="-0.63892">
        <ele>65</ele>
        <time>2015-08-25T18:29:32Z</time>
      </trkpt>
      <trkpt lat="47.45578" lon="-0.63921">
        <ele>66</ele>
        <time>2015-08-25T18:29:39Z</time>
      </trkpt>
      <trkpt lat="47.4559" lon="-0.63953">
        <ele>66</ele>
        <time>2015-08-25T18:29:47Z</time>
      </trkpt>
      <trkpt lat="47.45596" lon="-0.63963">
        <ele>67</ele>
        <time>2015-08-25T18:29:50Z</time>
      </trkpt>
      <trkpt lat="47.45611" lon="-0.63983">
        <ele>67</ele>
        <time>2015-08-25T18:29:57Z</time>
      </trkpt>
      <trkpt lat="47.45624" lon="-0.64008">
        <ele>67</ele>
        <time>2015-08-25T18:30:05Z</time>
      </trkpt>
      <trkpt lat="47.45631" lon="-0.64022">
        <ele>67</ele>
        <time>2015-08-25T18:30:09Z</time>
      </trkpt>
      <trkpt lat="47.4564" lon="-0.64038">
        <ele>68</ele>
        <time>2015-08-25T18:30:14Z</time>
      </trkpt>
      <trkpt lat="47.45647" lon="-0.64058">
        <ele>68</ele>
        <time>2015-08-25T18:30:20Z</time>
      </trkpt>
    </trkseg>
  </trk>
</gpx>